sensor_id;sensor_type;location;lat;lon;timestamp;pressure;altitude;pressure_sealevel;temperature;humidity
7170;BME280;3626;42.656;23.312;2023-03-31T00:00:00;94527.22;;;6.90;69.35
7170;BME280;3626;42.656;23.312;2023-03-31T00:00:07;94522.91;;;6.91;69.33
7170;BME280;3626;42.656;23.312;2023-03-31T00:00:16;94526.44;;;6.90;69.12
7170;BME280;3626;42.656;23.312;2023-03-31T00:00:23;94524.66;;;6.90;69.59
7170;BME280;3626;42.656;23.312;2023-03-31T00:00:29;94526.59;;;6.88;69.11
7170;BME280;3626;42.656;23.312;2023-03-31T00:00:35;94527.38;;;6.89;69.50
7170;BME280;3626;42.656;23.312;2023-03-31T00:00:41;94528.19;;;6.89;69.36
7170;BME280;3626;42.656;23.312;2023-03-31T00:00:51;94524.00;;;6.88;69.35
7170;BME280;3626;42.656;23.312;2023-03-31T00:00:58;94526.59;;;6.88;69.07
7170;BME280;3626;42.656;23.312;2023-03-31T00:01:05;94521.56;;;6.87;69.64
7170;BME280;3626;42.656;23.312;2023-03-31T00:01:11;94524.16;;;6.87;69.74
7170;BME280;3626;42.656;23.312;2023-03-31T00:01:17;94522.53;;;6.86;69.52
7170;BME280;3626;42.656;23.312;2023-03-31T00:01:24;94524.31;;;6.85;69.43
7170;BME280;3626;42.656;23.312;2023-03-31T00:01:30;94520.94;;;6.85;69.31
7170;BME280;3626;42.656;23.312;2023-03-31T00:01:38;94515.81;;;6.85;69.74
7170;BME280;3626;42.656;23.312;2023-03-31T00:01:46;94523.63;;;6.83;69.66
7170;BME280;3626;42.656;23.312;2023-03-31T00:01:52;94520.13;;;6.84;69.54
7170;BME280;3626;42.656;23.312;2023-03-31T00:01:58;94521.84;;;6.84;69.43
7170;BME280;3626;42.656;23.312;2023-03-31T00:02:06;94517.69;;;6.83;69.54
7170;BME280;3626;42.656;23.312;2023-03-31T00:02:17;94516.09;;;6.82;69.63
7170;BME280;3626;42.656;23.312;2023-03-31T00:02:26;94517.03;;;6.81;69.70
7170;BME280;3626;42.656;23.312;2023-03-31T00:02:34;94513.69;;;6.80;69.48
7170;BME280;3626;42.656;23.312;2023-03-31T00:02:41;94520.53;;;6.80;69.47
7170;BME280;3626;42.656;23.312;2023-03-31T00:02:47;94516.25;;;6.80;69.61
7170;BME280;3626;42.656;23.312;2023-03-31T00:02:53;94512.03;;;6.79;69.52
7170;BME280;3626;42.656;23.312;2023-03-31T00:03:00;94512.19;;;6.78;69.39
7170;BME280;3626;42.656;23.312;2023-03-31T00:03:07;94517.47;;;6.76;69.65
7170;BME280;3626;42.656;23.312;2023-03-31T00:03:15;94520.84;;;6.76;69.69
7170;BME280;3626;42.656;23.312;2023-03-31T00:03:26;94520.97;;;6.75;69.66
7170;BME280;3626;42.656;23.312;2023-03-31T00:03:31;94520.97;;;6.75;69.83
7170;BME280;3626;42.656;23.312;2023-03-31T00:03:38;94519.38;;;6.74;69.64
7170;BME280;3626;42.656;23.312;2023-03-31T00:03:48;94516.81;;;6.74;69.41
7170;BME280;3626;42.656;23.312;2023-03-31T00:03:55;94516.00;;;6.73;69.29
7170;BME280;3626;42.656;23.312;2023-03-31T00:04:09;94515.84;;;6.75;69.26
7170;BME280;3626;42.656;23.312;2023-03-31T00:04:17;94516.81;;;6.74;69.47
7170;BME280;3626;42.656;23.312;2023-03-31T00:04:23;94512.47;;;6.74;69.55
7170;BME280;3626;42.656;23.312;2023-03-31T00:04:30;94517.59;;;6.74;69.36
7170;BME280;3626;42.656;23.312;2023-03-31T00:04:36;94520.97;;;6.75;69.34
7170;BME280;3626;42.656;23.312;2023-03-31T00:04:42;94510.72;;;6.75;69.32
7170;BME280;3626;42.656;23.312;2023-03-31T00:04:50;94515.84;;;6.75;69.48
7170;BME280;3626;42.656;23.312;2023-03-31T00:04:56;94518.41;;;6.75;69.33
7170;BME280;3626;42.656;23.312;2023-03-31T00:05:04;94513.28;;;6.75;69.29
7170;BME280;3626;42.656;23.312;2023-03-31T00:05:11;94515.84;;;6.75;69.36
7170;BME280;3626;42.656;23.312;2023-03-31T00:05:22;94520.03;;;6.76;69.38
7170;BME280;3626;42.656;23.312;2023-03-31T00:05:29;94515.72;;;6.76;69.21
7170;BME280;3626;42.656;23.312;2023-03-31T00:05:37;94518.28;;;6.76;69.12
7170;BME280;3626;42.656;23.312;2023-03-31T00:05:43;94514.91;;;6.76;69.26
7170;BME280;3626;42.656;23.312;2023-03-31T00:05:56;94519.09;;;6.77;69.02
7170;BME280;3626;42.656;23.312;2023-03-31T00:06:03;94513.97;;;6.77;69.44
7170;BME280;3626;42.656;23.312;2023-03-31T00:06:10;94517.31;;;6.78;69.13
7170;BME280;3626;42.656;23.312;2023-03-31T00:06:16;94514.75;;;6.78;68.95
7170;BME280;3626;42.656;23.312;2023-03-31T00:06:22;94520.69;;;6.78;69.04
7170;BME280;3626;42.656;23.312;2023-03-31T00:06:29;94514.75;;;6.78;68.87
7170;BME280;3626;42.656;23.312;2023-03-31T00:06:36;94517.31;;;6.78;69.01
7170;BME280;3626;42.656;23.312;2023-03-31T00:06:42;94516.38;;;6.79;68.64
7170;BME280;3626;42.656;23.312;2023-03-31T00:06:48;94516.38;;;6.79;68.81
7170;BME280;3626;42.656;23.312;2023-03-31T00:06:55;94517.16;;;6.79;68.55
7170;BME280;3626;42.656;23.312;2023-03-31T00:07:02;94513.69;;;6.80;68.79
7170;BME280;3626;42.656;23.312;2023-03-31T00:07:11;94522.28;;;6.79;68.51
7170;BME280;3626;42.656;23.312;2023-03-31T00:07:18;94522.16;;;6.81;68.77
7170;BME280;3626;42.656;23.312;2023-03-31T00:07:26;94516.25;;;6.80;68.70
7170;BME280;3626;42.656;23.312;2023-03-31T00:07:32;94518.81;;;6.80;68.92
7170;BME280;3626;42.656;23.312;2023-03-31T00:07:38;94517.16;;;6.79;68.68
7170;BME280;3626;42.656;23.312;2023-03-31T00:07:43;94518.81;;;6.80;68.54
7170;BME280;3626;42.656;23.312;2023-03-31T00:07:52;94507.72;;;6.80;68.40
7170;BME280;3626;42.656;23.312;2023-03-31T00:07:58;94515.41;;;6.80;68.64
7170;BME280;3626;42.656;23.312;2023-03-31T00:08:05;94513.69;;;6.80;68.44
7170;BME280;3626;42.656;23.312;2023-03-31T00:08:13;94514.59;;;6.79;68.66
7170;BME280;3626;42.656;23.312;2023-03-31T00:08:19;94508.53;;;6.80;68.70
7170;BME280;3626;42.656;23.312;2023-03-31T00:08:26;94518.81;;;6.80;68.39
7170;BME280;3626;42.656;23.312;2023-03-31T00:08:34;94517.03;;;6.81;68.31
7170;BME280;3626;42.656;23.312;2023-03-31T00:08:41;94518.81;;;6.80;68.55
7170;BME280;3626;42.656;23.312;2023-03-31T00:08:46;94515.28;;;6.81;68.59
7170;BME280;3626;42.656;23.312;2023-03-31T00:08:55;94517.84;;;6.81;68.72
7170;BME280;3626;42.656;23.312;2023-03-31T00:09:08;94515.28;;;6.81;68.41
7170;BME280;3626;42.656;23.312;2023-03-31T00:09:14;94511.75;;;6.82;68.57
7170;BME280;3626;42.656;23.312;2023-03-31T00:09:23;94516.88;;;6.82;68.70
7170;BME280;3626;42.656;23.312;2023-03-31T00:09:29;94513.53;;;6.82;68.49
7170;BME280;3626;42.656;23.312;2023-03-31T00:09:37;94515.28;;;6.81;68.62
7170;BME280;3626;42.656;23.312;2023-03-31T00:09:47;94514.31;;;6.82;68.62
7170;BME280;3626;42.656;23.312;2023-03-31T00:09:53;94510.94;;;6.82;68.47
7170;BME280;3626;42.656;23.312;2023-03-31T00:10:03;94514.31;;;6.82;68.61
7170;BME280;3626;42.656;23.312;2023-03-31T00:10:09;94516.88;;;6.82;68.58
7170;BME280;3626;42.656;23.312;2023-03-31T00:10:15;94510.00;;;6.83;68.75
7170;BME280;3626;42.656;23.312;2023-03-31T00:10:23;94514.31;;;6.82;68.82
7170;BME280;3626;42.656;23.312;2023-03-31T00:10:31;94514.31;;;6.82;68.61
7170;BME280;3626;42.656;23.312;2023-03-31T00:10:43;94516.88;;;6.82;68.91
7170;BME280;3626;42.656;23.312;2023-03-31T00:10:49;94507.59;;;6.81;69.03
7170;BME280;3626;42.656;23.312;2023-03-31T00:10:58;94515.28;;;6.81;69.12
7170;BME280;3626;42.656;23.312;2023-03-31T00:11:05;94518.81;;;6.80;69.37
7170;BME280;3626;42.656;23.312;2023-03-31T00:11:11;94514.59;;;6.79;69.30
7170;BME280;3626;42.656;23.312;2023-03-31T00:11:21;94517.03;;;6.81;69.24
7170;BME280;3626;42.656;23.312;2023-03-31T00:11:27;94516.25;;;6.80;69.31
7170;BME280;3626;42.656;23.312;2023-03-31T00:11:33;94517.03;;;6.81;69.31
7170;BME280;3626;42.656;23.312;2023-03-31T00:11:40;94520.41;;;6.81;69.33
7170;BME280;3626;42.656;23.312;2023-03-31T00:11:47;94519.44;;;6.82;69.44
7170;BME280;3626;42.656;23.312;2023-03-31T00:11:54;94513.53;;;6.82;69.66
7170;BME280;3626;42.656;23.312;2023-03-31T00:12:00;94517.69;;;6.83;69.62
7170;BME280;3626;42.656;23.312;2023-03-31T00:12:06;94522.81;;;6.83;69.36
7170;BME280;3626;42.656;23.312;2023-03-31T00:12:12;94514.31;;;6.82;69.89
7170;BME280;3626;42.656;23.312;2023-03-31T00:12:19;94518.50;;;6.83;69.88
7170;BME280;3626;42.656;23.312;2023-03-31T00:12:25;94520.13;;;6.84;69.83
7170;BME280;3626;42.656;23.312;2023-03-31T00:12:31;94519.28;;;6.84;69.86
7170;BME280;3626;42.656;23.312;2023-03-31T00:12:37;94515.00;;;6.84;69.84
7170;BME280;3626;42.656;23.312;2023-03-31T00:12:42;94516.72;;;6.84;69.97
7170;BME280;3626;42.656;23.312;2023-03-31T00:12:48;94515.00;;;6.84;69.95
7170;BME280;3626;42.656;23.312;2023-03-31T00:12:54;94515.00;;;6.84;70.15
7170;BME280;3626;42.656;23.312;2023-03-31T00:13:00;94515.66;;;6.86;70.13
7170;BME280;3626;42.656;23.312;2023-03-31T00:13:06;94509.88;;;6.84;70.22
7170;BME280;3626;42.656;23.312;2023-03-31T00:13:12;94512.44;;;6.84;70.33
7170;BME280;3626;42.656;23.312;2023-03-31T00:13:19;94514.03;;;6.85;69.95
7170;BME280;3626;42.656;23.312;2023-03-31T00:13:25;94520.78;;;6.86;69.96
7170;BME280;3626;42.656;23.312;2023-03-31T00:13:31;94513.06;;;6.86;70.14
7170;BME280;3626;42.656;23.312;2023-03-31T00:13:38;94507.16;;;6.86;70.11
7170;BME280;3626;42.656;23.312;2023-03-31T00:13:44;94513.88;;;6.87;70.19
7170;BME280;3626;42.656;23.312;2023-03-31T00:13:50;94510.50;;;6.86;70.23
7170;BME280;3626;42.656;23.312;2023-03-31T00:13:55;94506.34;;;6.85;70.35
7170;BME280;3626;42.656;23.312;2023-03-31T00:14:01;94507.94;;;6.86;70.18
7170;BME280;3626;42.656;23.312;2023-03-31T00:14:08;94509.72;;;6.86;70.36
7170;BME280;3626;42.656;23.312;2023-03-31T00:14:14;94507.94;;;6.86;70.41
7170;BME280;3626;42.656;23.312;2023-03-31T00:14:22;94510.66;;;6.85;70.22
7170;BME280;3626;42.656;23.312;2023-03-31T00:14:28;94513.22;;;6.85;70.16
7170;BME280;3626;42.656;23.312;2023-03-31T00:14:36;94514.03;;;6.85;70.40
7170;BME280;3626;42.656;23.312;2023-03-31T00:14:42;94515.00;;;6.84;70.44
7170;BME280;3626;42.656;23.312;2023-03-31T00:14:48;94515.00;;;6.84;70.31
7170;BME280;3626;42.656;23.312;2023-03-31T00:14:54;94518.50;;;6.83;70.46
7170;BME280;3626;42.656;23.312;2023-03-31T00:15:00;94513.38;;;6.83;70.76
7170;BME280;3626;42.656;23.312;2023-03-31T00:15:06;94510.00;;;6.83;70.47
7170;BME280;3626;42.656;23.312;2023-03-31T00:15:12;94515.94;;;6.83;70.76
7170;BME280;3626;42.656;23.312;2023-03-31T00:15:20;94515.94;;;6.83;70.62
7170;BME280;3626;42.656;23.312;2023-03-31T00:15:26;94517.69;;;6.83;70.77
7170;BME280;3626;42.656;23.312;2023-03-31T00:15:32;94514.31;;;6.82;70.38
7170;BME280;3626;42.656;23.312;2023-03-31T00:15:38;94518.66;;;6.82;70.63
7170;BME280;3626;42.656;23.312;2023-03-31T00:15:44;94516.09;;;6.82;70.65
7170;BME280;3626;42.656;23.312;2023-03-31T00:15:55;94514.47;;;6.81;70.48
7170;BME280;3626;42.656;23.312;2023-03-31T00:16:03;94517.03;;;6.81;70.63
7170;BME280;3626;42.656;23.312;2023-03-31T00:16:09;94513.69;;;6.80;70.28
7170;BME280;3626;42.656;23.312;2023-03-31T00:16:16;94514.59;;;6.79;70.48
7170;BME280;3626;42.656;23.312;2023-03-31T00:16:22;94514.47;;;6.81;70.37
7170;BME280;3626;42.656;23.312;2023-03-31T00:16:28;94515.41;;;6.80;70.40
7170;BME280;3626;42.656;23.312;2023-03-31T00:16:34;94512.03;;;6.79;70.55
7170;BME280;3626;42.656;23.312;2023-03-31T00:16:40;94514.59;;;6.79;70.24
7170;BME280;3626;42.656;23.312;2023-03-31T00:16:47;94516.38;;;6.79;70.07
7170;BME280;3626;42.656;23.312;2023-03-31T00:16:53;94516.38;;;6.79;70.25
7170;BME280;3626;42.656;23.312;2023-03-31T00:16:59;94510.44;;;6.78;70.00
7170;BME280;3626;42.656;23.312;2023-03-31T00:17:06;94519.09;;;6.77;70.11
7170;BME280;3626;42.656;23.312;2023-03-31T00:17:12;94511.38;;;6.77;70.22
7170;BME280;3626;42.656;23.312;2023-03-31T00:17:18;94509.63;;;6.78;70.16
7170;BME280;3626;42.656;23.312;2023-03-31T00:17:24;94511.38;;;6.77;70.14
7170;BME280;3626;42.656;23.312;2023-03-31T00:17:30;94508.81;;;6.77;70.23
7170;BME280;3626;42.656;23.312;2023-03-31T00:17:37;94510.44;;;6.78;69.99
7170;BME280;3626;42.656;23.312;2023-03-31T00:17:43;94509.63;;;6.78;70.08
7170;BME280;3626;42.656;23.312;2023-03-31T00:17:49;94514.75;;;6.78;70.05
7170;BME280;3626;42.656;23.312;2023-03-31T00:17:56;94512.19;;;6.78;70.14
7170;BME280;3626;42.656;23.312;2023-03-31T00:18:05;94505.31;;;6.78;70.13
7170;BME280;3626;42.656;23.312;2023-03-31T00:18:10;94504.50;;;6.78;69.92
7170;BME280;3626;42.656;23.312;2023-03-31T00:18:16;94510.44;;;6.78;69.80
7170;BME280;3626;42.656;23.312;2023-03-31T00:18:22;94509.63;;;6.78;70.09
7170;BME280;3626;42.656;23.312;2023-03-31T00:18:30;94507.88;;;6.78;69.67
7170;BME280;3626;42.656;23.312;2023-03-31T00:18:36;94506.25;;;6.77;70.15
7170;BME280;3626;42.656;23.312;2023-03-31T00:18:45;94504.50;;;6.78;69.87
7170;BME280;3626;42.656;23.312;2023-03-31T00:18:55;94505.31;;;6.78;69.51
7170;BME280;3626;42.656;23.312;2023-03-31T00:19:02;94504.50;;;6.78;69.76
7170;BME280;3626;42.656;23.312;2023-03-31T00:19:08;94501.94;;;6.78;69.63
7170;BME280;3626;42.656;23.312;2023-03-31T00:19:22;94502.91;;;6.76;69.35
7170;BME280;3626;42.656;23.312;2023-03-31T00:19:28;94503.69;;;6.77;69.21
7170;BME280;3626;42.656;23.312;2023-03-31T00:19:34;94502.91;;;6.76;69.36
7170;BME280;3626;42.656;23.312;2023-03-31T00:19:40;94496.00;;;6.77;69.53
7170;BME280;3626;42.656;23.312;2023-03-31T00:19:46;94506.25;;;6.77;69.65
7170;BME280;3626;42.656;23.312;2023-03-31T00:19:54;94500.34;;;6.76;69.34
7170;BME280;3626;42.656;23.312;2023-03-31T00:20:05;94503.69;;;6.77;69.47
7170;BME280;3626;42.656;23.312;2023-03-31T00:20:16;94500.34;;;6.76;69.23
7170;BME280;3626;42.656;23.312;2023-03-31T00:20:22;94499.38;;;6.78;69.11
7170;BME280;3626;42.656;23.312;2023-03-31T00:20:30;94505.31;;;6.78;69.09
7170;BME280;3626;42.656;23.312;2023-03-31T00:20:37;94502.75;;;6.78;68.97
7170;BME280;3626;42.656;23.312;2023-03-31T00:20:43;94499.38;;;6.78;69.01
7170;BME280;3626;42.656;23.312;2023-03-31T00:20:49;94497.75;;;6.76;69.08
7170;BME280;3626;42.656;23.312;2023-03-31T00:21:06;94495.31;;;6.75;69.06
7170;BME280;3626;42.656;23.312;2023-03-31T00:21:17;94499.53;;;6.76;68.82
7170;BME280;3626;42.656;23.312;2023-03-31T00:21:29;94495.19;;;6.76;68.96
7170;BME280;3626;42.656;23.312;2023-03-31T00:21:40;94490.88;;;6.77;68.82
7170;BME280;3626;42.656;23.312;2023-03-31T00:21:47;94496.81;;;6.78;68.65
7170;BME280;3626;42.656;23.312;2023-03-31T00:21:53;94496.66;;;6.79;68.92
7170;BME280;3626;42.656;23.312;2023-03-31T00:21:59;94495.03;;;6.78;68.64
7170;BME280;3626;42.656;23.312;2023-03-31T00:22:06;94489.91;;;6.78;68.42
7170;BME280;3626;42.656;23.312;2023-03-31T00:22:12;94494.09;;;6.79;68.40
7170;BME280;3626;42.656;23.312;2023-03-31T00:22:19;94494.88;;;6.80;68.43
7170;BME280;3626;42.656;23.312;2023-03-31T00:22:26;94493.16;;;6.80;68.25
7170;BME280;3626;42.656;23.312;2023-03-31T00:22:32;94495.72;;;6.80;68.91
7170;BME280;3626;42.656;23.312;2023-03-31T00:22:38;94496.53;;;6.81;68.17
7170;BME280;3626;42.656;23.312;2023-03-31T00:22:46;94491.41;;;6.81;68.17
7170;BME280;3626;42.656;23.312;2023-03-31T00:22:52;94494.75;;;6.81;68.45
7170;BME280;3626;42.656;23.312;2023-03-31T00:22:59;94494.75;;;6.81;68.26
7170;BME280;3626;42.656;23.312;2023-03-31T00:23:06;94498.94;;;6.82;68.17
7170;BME280;3626;42.656;23.312;2023-03-31T00:23:15;94495.41;;;6.83;68.19
7170;BME280;3626;42.656;23.312;2023-03-31T00:23:20;94498.94;;;6.82;68.01
7170;BME280;3626;42.656;23.312;2023-03-31T00:23:32;94495.56;;;6.82;68.07
7170;BME280;3626;42.656;23.312;2023-03-31T00:23:37;94497.97;;;6.83;68.01
7170;BME280;3626;42.656;23.312;2023-03-31T00:23:43;94499.88;;;6.81;68.21
7170;BME280;3626;42.656;23.312;2023-03-31T00:23:49;94503.09;;;6.83;68.02
7170;BME280;3626;42.656;23.312;2023-03-31T00:23:56;94499.72;;;6.83;67.81
7170;BME280;3626;42.656;23.312;2023-03-31T00:24:06;94497.16;;;6.83;68.09
7170;BME280;3626;42.656;23.312;2023-03-31T00:24:13;94502.31;;;6.83;67.93
7170;BME280;3626;42.656;23.312;2023-03-31T00:24:19;94499.59;;;6.84;67.88
7170;BME280;3626;42.656;23.312;2023-03-31T00:24:25;94499.59;;;6.84;67.99
7170;BME280;3626;42.656;23.312;2023-03-31T00:24:31;94500.53;;;6.83;68.21
7170;BME280;3626;42.656;23.312;2023-03-31T00:24:37;94495.41;;;6.83;68.30
7170;BME280;3626;42.656;23.312;2023-03-31T00:24:43;94499.59;;;6.84;68.03
7170;BME280;3626;42.656;23.312;2023-03-31T00:24:49;94502.16;;;6.84;67.96
7170;BME280;3626;42.656;23.312;2023-03-31T00:24:55;94497.97;;;6.83;68.08
7170;BME280;3626;42.656;23.312;2023-03-31T00:25:01;94502.97;;;6.85;67.92
7170;BME280;3626;42.656;23.312;2023-03-31T00:25:08;94510.66;;;6.85;68.11
7170;BME280;3626;42.656;23.312;2023-03-31T00:25:15;94501.34;;;6.84;68.37
7170;BME280;3626;42.656;23.312;2023-03-31T00:25:21;94499.59;;;6.84;68.24
7170;BME280;3626;42.656;23.312;2023-03-31T00:25:28;94499.59;;;6.84;68.23
7170;BME280;3626;42.656;23.312;2023-03-31T00:25:33;94505.53;;;6.85;68.38
7170;BME280;3626;42.656;23.312;2023-03-31T00:25:39;94502.16;;;6.84;68.51
7170;BME280;3626;42.656;23.312;2023-03-31T00:25:46;94503.09;;;6.83;68.61
7170;BME280;3626;42.656;23.312;2023-03-31T00:25:52;94498.78;;;6.84;68.59
7170;BME280;3626;42.656;23.312;2023-03-31T00:25:57;94497.97;;;6.83;68.72
7170;BME280;3626;42.656;23.312;2023-03-31T00:26:03;94503.91;;;6.84;68.63
7170;BME280;3626;42.656;23.312;2023-03-31T00:26:10;94508.22;;;6.83;68.58
7170;BME280;3626;42.656;23.312;2023-03-31T00:26:16;94505.66;;;6.83;68.98
7170;BME280;3626;42.656;23.312;2023-03-31T00:26:22;94508.22;;;6.83;68.67
7170;BME280;3626;42.656;23.312;2023-03-31T00:26:28;94500.53;;;6.83;68.58
7170;BME280;3626;42.656;23.312;2023-03-31T00:26:35;94509.03;;;6.84;68.54
7170;BME280;3626;42.656;23.312;2023-03-31T00:26:41;94503.91;;;6.84;68.52
7170;BME280;3626;42.656;23.312;2023-03-31T00:26:48;94501.50;;;6.82;68.89
7170;BME280;3626;42.656;23.312;2023-03-31T00:26:54;94505.66;;;6.83;68.82
7170;BME280;3626;42.656;23.312;2023-03-31T00:27:00;94505.66;;;6.83;68.87
7170;BME280;3626;42.656;23.312;2023-03-31T00:27:07;94502.31;;;6.83;68.59
7170;BME280;3626;42.656;23.312;2023-03-31T00:27:13;94500.53;;;6.83;68.56
7170;BME280;3626;42.656;23.312;2023-03-31T00:27:19;94497.97;;;6.83;68.62
7170;BME280;3626;42.656;23.312;2023-03-31T00:27:25;94500.53;;;6.83;68.77
7170;BME280;3626;42.656;23.312;2023-03-31T00:27:32;94501.34;;;6.84;68.56
7170;BME280;3626;42.656;23.312;2023-03-31T00:27:40;94499.59;;;6.84;68.76
7170;BME280;3626;42.656;23.312;2023-03-31T00:27:48;94504.75;;;6.84;68.53
7170;BME280;3626;42.656;23.312;2023-03-31T00:27:54;94499.59;;;6.84;68.54
7170;BME280;3626;42.656;23.312;2023-03-31T00:28:00;94504.75;;;6.84;68.58
7170;BME280;3626;42.656;23.312;2023-03-31T00:28:07;94504.75;;;6.84;68.80
7170;BME280;3626;42.656;23.312;2023-03-31T00:28:13;94504.75;;;6.84;68.59
7170;BME280;3626;42.656;23.312;2023-03-31T00:28:18;94501.22;;;6.85;68.58
7170;BME280;3626;42.656;23.312;2023-03-31T00:28:24;94499.59;;;6.84;68.37
7170;BME280;3626;42.656;23.312;2023-03-31T00:28:30;94506.34;;;6.85;68.52
7170;BME280;3626;42.656;23.312;2023-03-31T00:28:36;94492.72;;;6.85;68.47
7170;BME280;3626;42.656;23.312;2023-03-31T00:28:42;94499.59;;;6.84;68.45
7170;BME280;3626;42.656;23.312;2023-03-31T00:28:47;94497.84;;;6.85;68.62
7170;BME280;3626;42.656;23.312;2023-03-31T00:28:54;94502.00;;;6.86;68.53
7170;BME280;3626;42.656;23.312;2023-03-31T00:29:01;94499.44;;;6.86;68.33
7170;BME280;3626;42.656;23.312;2023-03-31T00:29:08;94491.75;;;6.86;68.56
7170;BME280;3626;42.656;23.312;2023-03-31T00:29:15;94488.38;;;6.85;68.48
7170;BME280;3626;42.656;23.312;2023-03-31T00:29:20;94491.59;;;6.87;68.26
7170;BME280;3626;42.656;23.312;2023-03-31T00:29:27;94490.78;;;6.87;68.23
7170;BME280;3626;42.656;23.312;2023-03-31T00:29:33;94489.03;;;6.87;68.27
7170;BME280;3626;42.656;23.312;2023-03-31T00:29:41;94487.44;;;6.86;68.15
7170;BME280;3626;42.656;23.312;2023-03-31T00:29:47;94489.84;;;6.88;68.14
7170;BME280;3626;42.656;23.312;2023-03-31T00:29:55;94486.47;;;6.87;68.26
7170;BME280;3626;42.656;23.312;2023-03-31T00:30:01;94489.84;;;6.88;67.92
7170;BME280;3626;42.656;23.312;2023-03-31T00:30:07;94489.84;;;6.88;67.95
7170;BME280;3626;42.656;23.312;2023-03-31T00:30:14;94488.09;;;6.88;67.89
7170;BME280;3626;42.656;23.312;2023-03-31T00:30:20;94488.91;;;6.89;67.73
7170;BME280;3626;42.656;23.312;2023-03-31T00:30:25;94494.03;;;6.89;67.82
7170;BME280;3626;42.656;23.312;2023-03-31T00:30:31;94489.72;;;6.89;67.68
7170;BME280;3626;42.656;23.312;2023-03-31T00:30:37;94496.44;;;6.90;67.88
7170;BME280;3626;42.656;23.312;2023-03-31T00:30:44;94493.06;;;6.90;67.59
7170;BME280;3626;42.656;23.312;2023-03-31T00:30:51;94489.72;;;6.89;67.87
7170;BME280;3626;42.656;23.312;2023-03-31T00:31:01;94495.63;;;6.90;67.81
7170;BME280;3626;42.656;23.312;2023-03-31T00:31:07;94496.44;;;6.90;67.73
7170;BME280;3626;42.656;23.312;2023-03-31T00:31:12;94499.00;;;6.90;67.58
7170;BME280;3626;42.656;23.312;2023-03-31T00:31:18;94500.63;;;6.91;67.65
7170;BME280;3626;42.656;23.312;2023-03-31T00:31:25;94492.91;;;6.91;67.48
7170;BME280;3626;42.656;23.312;2023-03-31T00:31:32;94498.03;;;6.91;67.25
7170;BME280;3626;42.656;23.312;2023-03-31T00:31:38;94496.28;;;6.92;66.85
7170;BME280;3626;42.656;23.312;2023-03-31T00:31:43;94498.03;;;6.91;67.33
7170;BME280;3626;42.656;23.312;2023-03-31T00:31:50;94499.66;;;6.92;67.35
7170;BME280;3626;42.656;23.312;2023-03-31T00:31:56;94502.22;;;6.92;67.63
7170;BME280;3626;42.656;23.312;2023-03-31T00:32:04;94510.06;;;6.91;68.03
7170;BME280;3626;42.656;23.312;2023-03-31T00:32:10;94503.34;;;6.90;68.08
7170;BME280;3626;42.656;23.312;2023-03-31T00:32:15;94509.28;;;6.90;68.50
7170;BME280;3626;42.656;23.312;2023-03-31T00:32:21;94506.69;;;6.90;68.43
7170;BME280;3626;42.656;23.312;2023-03-31T00:32:27;94506.69;;;6.90;68.60
7170;BME280;3626;42.656;23.312;2023-03-31T00:32:33;94510.88;;;6.91;68.67
7170;BME280;3626;42.656;23.312;2023-03-31T00:32:39;94513.44;;;6.91;68.70
7170;BME280;3626;42.656;23.312;2023-03-31T00:32:45;94509.28;;;6.90;69.16
7170;BME280;3626;42.656;23.312;2023-03-31T00:32:51;94516.97;;;6.90;69.17
7170;BME280;3626;42.656;23.312;2023-03-31T00:32:57;94516.00;;;6.91;69.76
7170;BME280;3626;42.656;23.312;2023-03-31T00:33:03;94517.13;;;6.89;70.05
7170;BME280;3626;42.656;23.312;2023-03-31T00:33:09;94516.44;;;6.87;70.00
7170;BME280;3626;42.656;23.312;2023-03-31T00:33:14;94514.84;;;6.86;70.31
7170;BME280;3626;42.656;23.312;2023-03-31T00:33:20;94519.16;;;6.85;70.30
7170;BME280;3626;42.656;23.312;2023-03-31T00:33:28;94513.38;;;6.83;70.69
7170;BME280;3626;42.656;23.312;2023-03-31T00:33:34;94511.59;;;6.84;70.75
7170;BME280;3626;42.656;23.312;2023-03-31T00:33:40;94510.78;;;6.83;70.74
7170;BME280;3626;42.656;23.312;2023-03-31T00:33:46;94516.72;;;6.84;70.55
7170;BME280;3626;42.656;23.312;2023-03-31T00:33:51;94517.69;;;6.83;70.93
7170;BME280;3626;42.656;23.312;2023-03-31T00:33:57;94511.75;;;6.82;70.75
7170;BME280;3626;42.656;23.312;2023-03-31T00:34:03;94516.09;;;6.82;70.69
7170;BME280;3626;42.656;23.312;2023-03-31T00:34:09;94515.13;;;6.83;70.83
7170;BME280;3626;42.656;23.312;2023-03-31T00:34:15;94512.72;;;6.81;70.65
7170;BME280;3626;42.656;23.312;2023-03-31T00:34:21;94510.94;;;6.82;70.66
7170;BME280;3626;42.656;23.312;2023-03-31T00:34:27;94514.31;;;6.82;70.77
7170;BME280;3626;42.656;23.312;2023-03-31T00:34:33;94512.56;;;6.83;70.57
7170;BME280;3626;42.656;23.312;2023-03-31T00:34:39;94510.16;;;6.81;70.78
7170;BME280;3626;42.656;23.312;2023-03-31T00:34:45;94516.88;;;6.82;70.70
7170;BME280;3626;42.656;23.312;2023-03-31T00:34:52;94512.56;;;6.83;70.49
7170;BME280;3626;42.656;23.312;2023-03-31T00:34:57;94509.03;;;6.84;70.68
7170;BME280;3626;42.656;23.312;2023-03-31T00:35:04;94515.00;;;6.84;70.81
7170;BME280;3626;42.656;23.312;2023-03-31T00:35:10;94511.75;;;6.82;70.70
7170;BME280;3626;42.656;23.312;2023-03-31T00:35:15;94515.94;;;6.83;70.81
7170;BME280;3626;42.656;23.312;2023-03-31T00:35:21;94509.03;;;6.84;70.68
7170;BME280;3626;42.656;23.312;2023-03-31T00:35:27;94506.63;;;6.82;70.72
7170;BME280;3626;42.656;23.312;2023-03-31T00:35:34;94508.22;;;6.83;70.27
7170;BME280;3626;42.656;23.312;2023-03-31T00:35:43;94509.03;;;6.84;70.57
7170;BME280;3626;42.656;23.312;2023-03-31T00:35:50;94508.22;;;6.83;70.37
7170;BME280;3626;42.656;23.312;2023-03-31T00:35:56;94508.22;;;6.83;70.41
7170;BME280;3626;42.656;23.312;2023-03-31T00:36:06;94508.38;;;6.82;70.33
7170;BME280;3626;42.656;23.312;2023-03-31T00:36:12;94500.69;;;6.82;70.69
7170;BME280;3626;42.656;23.312;2023-03-31T00:36:27;94503.41;;;6.80;70.37
7170;BME280;3626;42.656;23.312;2023-03-31T00:36:34;94499.88;;;6.81;70.49
7170;BME280;3626;42.656;23.312;2023-03-31T00:36:50;94506.63;;;6.82;70.25
7170;BME280;3626;42.656;23.312;2023-03-31T00:37:00;94507.44;;;6.83;70.37
7170;BME280;3626;42.656;23.312;2023-03-31T00:37:07;94500.69;;;6.82;69.93
7170;BME280;3626;42.656;23.312;2023-03-31T00:37:14;94499.88;;;6.81;70.50
7170;BME280;3626;42.656;23.312;2023-03-31T00:37:20;94499.88;;;6.81;70.27
7170;BME280;3626;42.656;23.312;2023-03-31T00:37:26;94496.38;;;6.82;70.28
7170;BME280;3626;42.656;23.312;2023-03-31T00:37:32;94502.31;;;6.83;70.13
7170;BME280;3626;42.656;23.312;2023-03-31T00:37:38;94503.09;;;6.83;70.02